Time;durP1;ratioP1;P1;durP2;ratioP2;P2;SDS_P1;SDS_P2;PMS_P1;PMS_P2;Temp;Humidity;BMP_temperature;BMP_pressure;BME280_temperature;BME280_humidity;BME280_pressure;Samples;Min_cycle;Max_cycle;Signal;HPM_P1;HPM_P2
2022/05/03 00:00:24;;;;;;;16.90;14.20;;;12.60;99.90;;;;;;2459316;24;20016;-73
2022/05/03 00:01:58;;;;;;;17.48;14.07;;;12.60;99.90;;;;;;2480007;23;20095;-73
2022/05/03 00:03:07;;;;;;;18.70;14.00;;;12.60;99.90;;;;;;2484129;23;20060;-73
2022/05/03 00:04:29;;;;;;;19.95;14.32;;;12.60;99.90;;;;;;2484092;23;20447;-74
2022/05/03 00:05:44;;;;;;;17.30;13.93;;;12.60;99.90;;;;;;2484004;23;20583;-73
2022/05/03 00:07:03;;;;;;;18.10;14.15;;;12.60;99.90;;;;;;2483660;23;20509;-73
2022/05/03 00:08:11;;;;;;;17.65;14.63;;;12.60;99.90;;;;;;2483860;23;20333;-73
2022/05/03 00:09:22;;;;;;;18.02;14.75;;;12.50;99.90;;;;;;2484013;23;20302;-74
2022/05/03 00:10:39;;;;;;;19.88;15.05;;;12.50;99.90;;;;;;2483688;23;20079;-73
2022/05/03 00:11:58;;;;;;;19.50;15.60;;;12.50;99.90;;;;;;2484058;23;20015;-74
2022/05/03 00:13:12;;;;;;;19.08;14.50;;;12.50;99.90;;;;;;2484030;23;20428;-74
2022/05/03 00:14:37;;;;;;;17.15;14.55;;;12.40;99.90;;;;;;2483969;23;20677;-73
2022/05/03 00:15:40;;;;;;;18.73;15.10;;;12.40;99.90;;;;;;2483947;23;20012;-73
2022/05/03 00:16:41;;;;;;;20.13;15.25;;;12.40;99.90;;;;;;2494636;23;20000;-73
2022/05/03 00:17:43;;;;;;;19.75;15.55;;;12.40;99.90;;;;;;2494172;23;20683;-73
2022/05/03 00:18:44;;;;;;;18.33;14.43;;;12.30;99.90;;;;;;2484006;23;20030;-73
2022/05/03 00:19:45;;;;;;;19.13;14.57;;;12.30;99.90;;;;;;2483912;23;19996;-73
2022/05/03 00:20:47;;;;;;;18.15;14.32;;;12.30;99.90;;;;;;2483817;23;20071;-72
2022/05/03 00:21:48;;;;;;;20.83;15.18;;;12.30;99.90;;;;;;2483937;23;20020;-74
2022/05/03 00:22:49;;;;;;;18.58;15.15;;;12.30;99.90;;;;;;2483978;23;20016;-74
2022/05/03 00:23:50;;;;;;;17.60;14.73;;;12.20;99.90;;;;;;2484062;23;20004;-72
2022/05/03 00:24:54;;;;;;;16.70;14.80;;;12.20;99.90;;;;;;2483191;23;20079;-73
2022/05/03 00:25:55;;;;;;;17.95;15.30;;;12.20;99.90;;;;;;2483255;23;20345;-73
2022/05/03 00:26:57;;;;;;;18.95;14.48;;;12.20;99.90;;;;;;2483011;23;20018;-72
2022/05/03 00:27:59;;;;;;;16.95;13.75;;;12.20;99.90;;;;;;2483963;23;20012;-73
2022/05/03 00:29:00;;;;;;;15.85;13.88;;;12.20;99.90;;;;;;2483958;23;20015;-74
2022/05/03 00:30:03;;;;;;;17.60;14.40;;;12.20;99.90;;;;;;2482982;23;20525;-73
2022/05/03 00:31:05;;;;;;;19.38;14.55;;;12.10;99.90;;;;;;2483457;23;20070;-73
2022/05/03 00:32:06;;;;;;;18.30;13.82;;;12.10;99.90;;;;;;2494947;23;20011;-73
2022/05/03 00:33:09;;;;;;;16.85;14.20;;;12.10;99.90;;;;;;2494864;23;20380;-73
2022/05/03 00:34:10;;;;;;;16.10;13.85;;;12.10;99.90;;;;;;2483913;23;20011;-73
2022/05/03 00:35:11;;;;;;;16.38;14.27;;;12.00;99.90;;;;;;2483773;23;20012;-72
2022/05/03 00:36:11;;;;;;;16.98;14.45;;;12.10;99.90;;;;;;2483798;23;20003;-73
2022/05/03 00:37:12;;;;;;;18.40;15.48;;;12.10;99.90;;;;;;2483010;23;20011;-74
2022/05/03 00:38:12;;;;;;;18.85;16.45;;;12.10;99.90;;;;;;2483016;23;20008;-74
2022/05/03 00:39:13;;;;;;;19.98;16.52;;;12.10;99.90;;;;;;2483001;23;20475;-73
2022/05/03 00:40:17;;;;;;;19.52;16.65;;;12.10;99.90;;;;;;2483473;23;20023;-73
2022/05/03 00:41:41;;;;;;;20.25;16.00;;;12.10;99.90;;;;;;2483975;23;20008;-73
2022/05/03 00:42:56;;;;;;;19.00;16.20;;;12.00;99.90;;;;;;2483373;23;20011;-72
2022/05/03 00:46:01;;;;;;;18.10;15.52;;;12.00;99.90;;;;;;2483758;23;20039;-71
2022/05/03 00:47:14;;;;;;;17.60;15.68;;;11.90;99.90;;;;;;2482381;23;20036;-74
2022/05/03 00:48:23;;;;;;;18.63;15.90;;;11.90;99.90;;;;;;2483035;23;20087;-73
2022/05/03 00:50:06;;;;;;;19.33;16.25;;;11.90;99.90;;;;;;2483864;23;20012;-73
2022/05/03 00:51:06;;;;;;;17.83;15.93;;;11.80;99.90;;;;;;2483852;23;20090;-72
2022/05/03 00:52:22;;;;;;;19.05;16.50;;;11.80;99.90;;;;;;2484042;23;20012;-73
2022/05/03 00:53:28;;;;;;;19.10;15.75;;;11.80;99.90;;;;;;2484123;23;20073;-74
2022/05/03 00:55:06;;;;;;;19.83;15.73;;;11.80;99.90;;;;;;2484070;23;20031;-73
2022/05/03 00:56:30;;;;;;;18.48;15.43;;;11.80;99.90;;;;;;2483997;23;20193;-72
2022/05/03 00:57:45;;;;;;;19.20;16.05;;;11.70;99.90;;;;;;2483449;23;20004;-73
2022/05/03 00:59:04;;;;;;;19.70;16.27;;;11.70;99.90;;;;;;2483662;23;20015;-73
2022/05/03 01:00:14;;;;;;;17.58;15.20;;;11.70;99.90;;;;;;2483480;23;20010;-73
2022/05/03 01:01:23;;;;;;;20.23;16.05;;;11.70;99.90;;;;;;2483877;23;20062;-73
2022/05/03 01:02:39;;;;;;;19.58;15.48;;;11.70;99.90;;;;;;2483750;23;20004;-73
2022/05/03 01:04:27;;;;;;;20.42;16.42;;;11.70;99.90;;;;;;2483862;23;20461;-73
2022/05/03 01:06:00;;;;;;;20.33;16.55;;;11.70;99.90;;;;;;2459281;24;20570;-74
2022/05/03 01:07:38;;;;;;;23.27;17.42;;;11.70;99.90;;;;;;2458524;24;20012;-72
2022/05/03 01:08:50;;;;;;;20.70;16.60;;;11.70;99.90;;;;;;2483563;23;20055;-73
2022/05/03 01:10:09;;;;;;;21.48;17.40;;;11.70;99.90;;;;;;2483653;23;20008;-73
2022/05/03 01:11:25;;;;;;;19.38;16.73;;;11.70;99.90;;;;;;2483644;23;20039;-73
2022/05/03 01:12:39;;;;;;;20.67;17.30;;;11.70;99.90;;;;;;2483789;23;20004;-73
2022/05/03 01:14:10;;;;;;;21.70;17.15;;;11.70;99.90;;;;;;2483696;23;20080;-72
2022/05/03 01:15:19;;;;;;;21.88;16.90;;;11.60;99.90;;;;;;2483860;23;20008;-72
2022/05/03 01:16:31;;;;;;;20.40;16.38;;;11.60;99.90;;;;;;2483621;23;20496;-74
2022/05/03 01:17:54;;;;;;;20.45;16.77;;;11.50;99.90;;;;;;2494196;23;20086;-72
2022/05/03 01:19:15;;;;;;;20.42;16.55;;;11.50;99.90;;;;;;2494745;23;20000;-72
2022/05/03 01:20:30;;;;;;;19.98;16.25;;;11.40;99.90;;;;;;2490261;23;20090;-73
2022/05/03 01:21:55;;;;;;;19.48;15.98;;;11.40;99.90;;;;;;2483614;23;20050;-71
2022/05/03 01:23:26;;;;;;;21.95;16.55;;;11.40;99.90;;;;;;2483762;23;20012;-73
2022/05/03 01:24:46;;;;;;;23.70;17.33;;;11.40;99.90;;;;;;2483622;23;20095;-72
2022/05/03 01:25:52;;;;;;;19.52;16.08;;;11.30;99.90;;;;;;2482991;23;20008;-73
2022/05/03 01:27:23;;;;;;;19.35;15.95;;;11.30;99.90;;;;;;2482437;23;20003;-72
2022/05/03 01:28:30;;;;;;;19.33;15.90;;;11.30;99.90;;;;;;2483803;23;20018;-73
2022/05/03 01:29:35;;;;;;;19.60;16.63;;;11.20;99.90;;;;;;2483547;23;20008;-74
2022/05/03 01:30:36;;;;;;;20.92;16.05;;;11.20;99.90;;;;;;2483465;23;20017;-73
2022/05/03 01:31:39;;;;;;;19.00;15.05;;;11.20;99.90;;;;;;2483722;23;20008;-73
2022/05/03 01:32:44;;;;;;;20.77;15.55;;;11.20;99.90;;;;;;2483549;23;20012;-74
2022/05/03 01:33:45;;;;;;;20.08;15.25;;;11.20;99.90;;;;;;2483165;23;20004;-73
2022/05/03 01:34:46;;;;;;;19.92;16.27;;;11.20;99.90;;;;;;2483277;23;20016;-73
2022/05/03 01:35:51;;;;;;;19.35;16.33;;;11.20;99.90;;;;;;2483894;23;20008;-73
2022/05/03 01:37:21;;;;;;;19.13;16.25;;;11.20;99.90;;;;;;2482863;23;20037;-73
2022/05/03 01:38:28;;;;;;;20.08;15.82;;;11.20;99.90;;;;;;2489611;23;20562;-74
2022/05/03 01:40:00;;;;;;;21.17;16.27;;;11.10;99.90;;;;;;2483319;23;20008;-73
2022/05/03 01:41:24;;;;;;;19.50;15.90;;;11.10;99.90;;;;;;2501313;23;20431;-74
2022/05/03 01:42:31;;;;;;;20.90;15.95;;;11.10;99.90;;;;;;2502408;23;20018;-74
2022/05/03 01:44:01;;;;;;;20.20;15.75;;;11.10;99.90;;;;;;2496103;23;20040;-73
2022/05/03 01:45:10;;;;;;;19.73;16.17;;;11.10;99.90;;;;;;2495556;23;20015;-73
2022/05/03 01:46:18;;;;;;;20.15;15.90;;;11.10;99.90;;;;;;2495357;23;20506;-73
2022/05/03 01:47:43;;;;;;;19.83;16.23;;;11.00;99.90;;;;;;2494831;23;20022;-73
2022/05/03 01:50:58;;;;;;;23.65;17.27;;;10.90;99.90;;;;;;2485797;23;20007;-73
2022/05/03 01:52:09;;;;;;;19.58;16.55;;;10.90;99.90;;;;;;2495301;23;20105;-74
2022/05/03 01:53:15;;;;;;;19.05;16.02;;;10.90;99.90;;;;;;2495349;23;20003;-73
2022/05/03 01:54:53;;;;;;;21.00;16.05;;;10.90;99.90;;;;;;2495509;23;20011;-73
2022/05/03 01:56:25;;;;;;;22.55;16.48;;;10.90;99.90;;;;;;2495399;23;20031;-73
2022/05/03 01:57:54;;;;;;;20.10;15.73;;;10.80;99.90;;;;;;2505754;23;20777;-73
2022/05/03 01:59:18;;;;;;;19.77;15.82;;;10.80;99.90;;;;;;2501072;23;20465;-73
2022/05/03 02:00:21;;;;;;;19.50;16.13;;;10.80;99.90;;;;;;2494774;23;20583;-73
2022/05/03 02:01:40;;;;;;;19.08;15.85;;;10.80;99.90;;;;;;2495633;23;20337;-73
2022/05/03 02:03:22;;;;;;;20.42;16.67;;;10.80;99.90;;;;;;2495614;23;20069;-73
2022/05/03 02:04:35;;;;;;;19.40;16.10;;;10.80;99.90;;;;;;2495645;23;20004;-73
2022/05/03 02:06:01;;;;;;;19.50;16.00;;;10.80;99.90;;;;;;2495516;23;19999;-73
2022/05/03 02:07:16;;;;;;;20.13;15.40;;;10.80;99.90;;;;;;2494896;23;20038;-74
2022/05/03 02:08:20;;;;;;;18.33;15.45;;;10.80;99.90;;;;;;2495515;23;20007;-73
2022/05/03 02:09:38;;;;;;;17.83;15.60;;;10.80;99.90;;;;;;2495356;23;20011;-73
2022/05/03 02:10:57;;;;;;;20.05;16.67;;;10.80;99.90;;;;;;2495193;23;20008;-73
2022/05/03 02:12:24;;;;;;;19.50;16.05;;;10.80;99.90;;;;;;2495380;23;20004;-72
2022/05/03 02:15:11;;;;;;;18.80;15.48;;;10.80;99.90;;;;;;2491116;23;20071;-72
2022/05/03 02:16:13;;;;;;;18.55;15.50;;;10.80;99.90;;;;;;2494626;23;20042;-72
2022/05/03 02:17:38;;;;;;;19.52;16.42;;;10.80;99.90;;;;;;2505474;23;20359;-72
2022/05/03 02:19:08;;;;;;;20.98;17.65;;;10.80;99.90;;;;;;2502047;23;20619;-73
2022/05/03 02:20:21;;;;;;;23.60;18.60;;;10.80;99.90;;;;;;2458929;24;20476;-73
2022/05/03 02:21:32;;;;;;;22.42;18.55;;;10.90;99.90;;;;;;2495741;23;20232;-74
2022/05/03 02:23:01;;;;;;;22.50;18.77;;;10.90;99.90;;;;;;2495744;23;20012;-74
2022/05/03 02:24:10;;;;;;;24.15;19.25;;;10.90;99.90;;;;;;2496170;23;20086;-74
2022/05/03 02:25:31;;;;;;;23.75;19.15;;;10.80;99.90;;;;;;2496196;23;20011;-73
2022/05/03 02:26:54;;;;;;;23.00;18.88;;;10.80;99.90;;;;;;2495452;23;20038;-74
2022/05/03 02:28:03;;;;;;;23.10;18.77;;;10.80;99.90;;;;;;2495478;23;20018;-73
2022/05/03 02:29:10;;;;;;;22.75;19.00;;;10.70;99.90;;;;;;2482913;23;20011;-73
2022/05/03 02:30:12;;;;;;;22.58;18.83;;;10.70;99.90;;;;;;2483674;23;20558;-73
2022/05/03 02:31:17;;;;;;;21.38;19.00;;;10.70;99.90;;;;;;2482821;23;20019;-73
2022/05/03 02:32:34;;;;;;;21.55;18.88;;;10.70;99.90;;;;;;2483109;23;20007;-74
2022/05/03 02:33:55;;;;;;;22.20;17.92;;;10.60;99.90;;;;;;2494427;23;20015;-73
2022/05/03 02:35:02;;;;;;;21.15;17.73;;;10.60;99.90;;;;;;2506454;23;20010;-73
2022/05/03 02:36:10;;;;;;;23.27;18.40;;;10.50;99.90;;;;;;2505374;23;20054;-73
2022/05/03 02:37:24;;;;;;;21.58;18.13;;;10.50;99.90;;;;;;2492496;23;20403;-73
2022/05/03 02:38:37;;;;;;;20.83;18.20;;;10.50;99.90;;;;;;2483728;23;20382;-73
2022/05/03 02:39:46;;;;;;;22.92;18.42;;;10.40;99.90;;;;;;2483957;23;20322;-73
2022/05/03 02:40:52;;;;;;;20.45;17.60;;;10.40;99.90;;;;;;2484138;23;20004;-73
2022/05/03 02:41:56;;;;;;;21.42;17.77;;;10.40;99.90;;;;;;2484521;23;20015;-73
2022/05/03 02:42:58;;;;;;;21.23;17.58;;;10.30;99.90;;;;;;2484205;23;20055;-73
2022/05/03 02:43:59;;;;;;;21.05;17.58;;;10.30;99.90;;;;;;2484266;23;20023;-73
2022/05/03 02:45:01;;;;;;;24.23;17.55;;;10.30;99.90;;;;;;2484410;23;20457;-74
2022/05/03 02:46:19;;;;;;;21.15;18.05;;;10.30;99.90;;;;;;2484321;23;20011;-73
2022/05/03 02:47:51;;;;;;;24.80;17.80;;;10.30;99.90;;;;;;2483693;23;20080;-73
2022/05/03 02:49:18;;;;;;;21.42;17.98;;;10.20;99.90;;;;;;2484594;23;20007;-73
2022/05/03 02:50:30;;;;;;;21.70;17.88;;;10.20;99.90;;;;;;2484181;23;20004;-73
2022/05/03 02:52:02;;;;;;;24.40;18.50;;;10.20;99.90;;;;;;2484553;23;20036;-73
2022/05/03 02:53:26;;;;;;;20.92;17.50;;;10.20;99.90;;;;;;2484355;23;20061;-74
2022/05/03 02:54:48;;;;;;;24.55;18.48;;;10.10;99.90;;;;;;2484500;23;20079;-73
2022/05/03 02:56:05;;;;;;;23.38;17.65;;;10.10;99.90;;;;;;2484590;23;20018;-73
2022/05/03 02:57:26;;;;;;;20.70;17.42;;;10.10;99.90;;;;;;2484009;23;20014;-73
2022/05/03 02:58:45;;;;;;;24.02;18.73;;;10.10;99.90;;;;;;2484581;23;20116;-74
2022/05/03 03:01:49;;;;;;;22.92;18.10;;;10.10;99.90;;;;;;2484669;23;20047;-74
2022/05/03 03:03:21;;;;;;;23.27;18.98;;;10.10;99.90;;;;;;2484386;23;20018;-74
2022/05/03 03:04:44;;;;;;;22.52;18.67;;;10.10;99.90;;;;;;2484349;23;20008;-74
2022/05/03 03:05:55;;;;;;;23.75;18.40;;;10.10;99.90;;;;;;2484274;23;20031;-74
2022/05/03 03:06:57;;;;;;;23.73;18.10;;;10.10;99.90;;;;;;2483725;23;20110;-74
2022/05/03 03:08:02;;;;;;;22.10;17.40;;;10.00;99.90;;;;;;2484530;23;20008;-73
2022/05/03 03:09:03;;;;;;;21.50;17.27;;;10.00;99.90;;;;;;2484595;23;20004;-73
2022/05/03 03:10:05;;;;;;;21.60;17.10;;;10.00;99.90;;;;;;2484493;23;20460;-73
2022/05/03 03:11:09;;;;;;;19.98;17.20;;;10.00;99.90;;;;;;2484659;23;20035;-73
2022/05/03 03:12:27;;;;;;;19.35;16.58;;;10.00;99.90;;;;;;2484122;23;20008;-73
2022/05/03 03:13:59;;;;;;;22.15;17.30;;;10.00;99.90;;;;;;2484603;23;20088;-73
2022/05/03 03:15:08;;;;;;;21.02;16.83;;;10.00;99.90;;;;;;2486499;23;20022;-73
2022/05/03 03:16:13;;;;;;;21.63;16.95;;;10.00;99.90;;;;;;2485381;23;20000;-72
2022/05/03 03:17:20;;;;;;;19.88;16.52;;;10.00;99.90;;;;;;2495519;23;20094;-73
2022/05/03 03:18:24;;;;;;;21.48;17.30;;;10.00;99.90;;;;;;2495038;23;20030;-72
2022/05/03 03:19:40;;;;;;;19.05;15.88;;;10.00;99.90;;;;;;2485505;23;20114;-73
2022/05/03 03:20:53;;;;;;;20.38;17.15;;;10.00;99.90;;;;;;2484780;23;19996;-74
2022/05/03 03:21:57;;;;;;;19.80;16.52;;;10.00;99.90;;;;;;2484992;23;20016;-74
2022/05/03 03:22:58;;;;;;;19.83;16.55;;;10.00;99.90;;;;;;2484946;23;20100;-74
2022/05/03 03:24:01;;;;;;;20.73;16.60;;;9.90;99.90;;;;;;2496337;23;20067;-74
2022/05/03 03:25:03;;;;;;;21.42;17.13;;;9.90;99.90;;;;;;2496441;23;20744;-73
2022/05/03 03:26:04;;;;;;;20.08;16.75;;;9.90;99.90;;;;;;2486097;23;20012;-73
2022/05/03 03:27:08;;;;;;;20.75;17.10;;;9.90;99.90;;;;;;2485498;23;20082;-73
2022/05/03 03:28:11;;;;;;;19.80;16.83;;;9.90;99.90;;;;;;2485394;23;20004;-73
2022/05/03 03:29:13;;;;;;;21.83;17.67;;;9.90;99.90;;;;;;2485977;23;20044;-73
2022/05/03 03:30:16;;;;;;;21.15;17.55;;;9.90;99.90;;;;;;2485802;23;19999;-73
2022/05/03 03:31:20;;;;;;;25.38;17.40;;;9.90;99.90;;;;;;2485165;23;20003;-73
2022/05/03 03:32:26;;;;;;;21.55;17.55;;;9.80;99.90;;;;;;2485374;23;20039;-73
2022/05/03 03:33:32;;;;;;;22.58;18.10;;;9.80;99.90;;;;;;2485772;23;20360;-73
2022/05/03 03:34:33;;;;;;;22.35;16.88;;;9.80;99.90;;;;;;2484956;23;20445;-73
2022/05/03 03:35:34;;;;;;;22.95;18.15;;;9.80;99.90;;;;;;2484493;23;20003;-73
2022/05/03 03:36:35;;;;;;;22.70;18.83;;;9.80;99.90;;;;;;2484589;23;20083;-73
2022/05/03 03:37:35;;;;;;;21.00;17.95;;;9.80;99.90;;;;;;2483472;23;20078;-73
2022/05/03 03:38:40;;;;;;;20.90;17.52;;;9.90;99.90;;;;;;2484080;23;20742;-74
2022/05/03 03:39:40;;;;;;;21.35;17.83;;;9.80;99.90;;;;;;2484210;23;19996;-74
2022/05/03 03:40:45;;;;;;;25.73;18.17;;;9.80;99.90;;;;;;2484091;23;20000;-74
2022/05/03 03:41:47;;;;;;;21.92;17.83;;;9.80;99.90;;;;;;2484290;23;20631;-73
2022/05/03 03:42:49;;;;;;;22.20;17.65;;;9.80;99.90;;;;;;2483374;23;20008;-73
2022/05/03 03:43:52;;;;;;;21.55;17.67;;;9.80;99.90;;;;;;2483457;23;20091;-73
2022/05/03 03:44:53;;;;;;;20.92;17.30;;;9.80;99.90;;;;;;2484185;23;20008;-74
2022/05/03 03:45:54;;;;;;;20.23;17.70;;;9.80;99.90;;;;;;2483284;23;20011;-74
2022/05/03 03:46:55;;;;;;;19.50;16.85;;;9.80;99.90;;;;;;2482724;23;20031;-74
2022/05/03 03:47:56;;;;;;;22.67;17.95;;;9.80;99.90;;;;;;2484148;23;20011;-74
2022/05/03 03:48:57;;;;;;;20.77;17.75;;;9.80;99.90;;;;;;2495187;23;20015;-74
2022/05/03 03:50:00;;;;;;;21.42;17.88;;;9.80;99.90;;;;;;2494868;23;20067;-74
2022/05/03 03:51:04;;;;;;;23.48;18.45;;;9.80;99.90;;;;;;2483845;23;20004;-72
2022/05/03 03:52:06;;;;;;;24.05;18.58;;;9.80;99.90;;;;;;2484200;23;20008;-72
2022/05/03 03:53:07;;;;;;;21.88;18.20;;;9.80;99.90;;;;;;2484066;23;20094;-72
2022/05/03 03:54:08;;;;;;;22.98;17.95;;;9.80;99.90;;;;;;2484216;23;20008;-73
2022/05/03 03:55:10;;;;;;;22.60;18.40;;;9.80;99.90;;;;;;2484276;23;20008;-72
2022/05/03 03:56:11;;;;;;;23.02;18.27;;;9.80;99.90;;;;;;2484048;23;20010;-72
2022/05/03 03:57:14;;;;;;;27.02;19.00;;;9.80;99.90;;;;;;2483405;23;20016;-72
2022/05/03 03:58:17;;;;;;;24.08;19.02;;;9.80;99.90;;;;;;2484016;23;20201;-71
2022/05/03 03:59:18;;;;;;;22.33;18.40;;;9.80;99.90;;;;;;2484137;23;20007;-72
2022/05/03 04:00:18;;;;;;;23.00;18.55;;;9.80;99.90;;;;;;2483692;23;20302;-72
2022/05/03 04:01:19;;;;;;;25.27;18.27;;;9.80;99.90;;;;;;2484120;23;20015;-72
2022/05/03 04:02:20;;;;;;;21.15;17.80;;;9.90;99.90;;;;;;2483136;23;20477;-72
2022/05/03 04:03:22;;;;;;;21.15;18.10;;;9.90;99.90;;;;;;2483269;23;20019;-74
2022/05/03 04:04:28;;;;;;;21.23;17.30;;;9.90;99.90;;;;;;2484134;23;20016;-73
2022/05/03 04:05:29;;;;;;;23.48;18.52;;;9.90;99.90;;;;;;2484009;23;20011;-73
2022/05/03 04:06:30;;;;;;;21.23;17.52;;;9.90;99.90;;;;;;2483976;23;20040;-73
2022/05/03 04:07:32;;;;;;;21.08;17.00;;;9.90;99.90;;;;;;2483611;23;20039;-73
2022/05/03 04:08:32;;;;;;;21.70;17.90;;;9.90;99.90;;;;;;2484212;23;20349;-73
2022/05/03 04:09:34;;;;;;;20.45;17.08;;;9.90;99.90;;;;;;2484341;23;20012;-73
2022/05/03 04:10:34;;;;;;;20.20;17.00;;;10.00;99.90;;;;;;2484190;23;19996;-73
2022/05/03 04:11:45;;;;;;;20.88;17.33;;;10.00;99.90;;;;;;2484724;23;20008;-73
2022/05/03 04:12:46;;;;;;;20.88;17.38;;;10.00;99.90;;;;;;2483507;23;20022;-73
2022/05/03 04:13:47;;;;;;;23.33;18.10;;;10.00;99.90;;;;;;2483689;23;20030;-73
2022/05/03 04:14:48;;;;;;;21.42;17.95;;;10.10;99.90;;;;;;2484531;23;20011;-75
2022/05/03 04:15:52;;;;;;;23.35;18.15;;;10.00;99.90;;;;;;2484296;23;20422;-74
2022/05/03 04:16:53;;;;;;;19.92;17.77;;;10.10;99.90;;;;;;2482957;23;20043;-73
2022/05/03 04:17:54;;;;;;;22.52;17.50;;;10.10;99.90;;;;;;2483244;23;20011;-74
2022/05/03 04:18:55;;;;;;;26.27;18.30;;;10.10;99.90;;;;;;2483291;23;20008;-71
2022/05/03 04:19:56;;;;;;;22.60;17.83;;;10.10;99.90;;;;;;2483977;23;20011;-72
2022/05/03 04:20:56;;;;;;;22.10;17.52;;;10.10;99.90;;;;;;2484258;23;20565;-74
2022/05/03 04:22:12;;;;;;;20.70;16.67;;;10.10;99.90;;;;;;2484133;23;20008;-74
2022/05/03 04:23:21;;;;;;;20.92;17.65;;;10.20;99.90;;;;;;2495123;23;20015;-74
2022/05/03 04:24:22;;;;;;;22.80;17.92;;;10.30;99.90;;;;;;2495016;23;20019;-72
2022/05/03 04:25:23;;;;;;;21.92;17.10;;;10.40;99.90;;;;;;2495018;23;20063;-72
2022/05/03 04:26:23;;;;;;;22.40;17.98;;;10.50;99.90;;;;;;2483782;23;20084;-74
2022/05/03 04:27:26;;;;;;;20.08;17.30;;;10.50;99.90;;;;;;2483144;23;20513;-73
2022/05/03 04:28:27;;;;;;;21.67;18.33;;;10.60;99.90;;;;;;2484129;23;20011;-73
2022/05/03 04:29:27;;;;;;;22.60;17.52;;;10.60;99.90;;;;;;2483729;23;20019;-73
2022/05/03 04:30:28;;;;;;;22.08;17.65;;;10.60;99.90;;;;;;2483635;23;20011;-73
2022/05/03 04:31:30;;;;;;;23.05;17.65;;;10.50;99.90;;;;;;2483931;23;20079;-74
2022/05/03 04:32:34;;;;;;;22.25;17.15;;;10.50;99.90;;;;;;2483905;23;20330;-74
2022/05/03 04:33:34;;;;;;;21.02;17.05;;;10.50;99.90;;;;;;2483754;23;20008;-74
2022/05/03 04:34:35;;;;;;;23.45;17.25;;;10.50;99.90;;;;;;2484092;23;20007;-72
2022/05/03 04:35:35;;;;;;;21.60;16.40;;;10.60;99.90;;;;;;2483949;23;20042;-73
2022/05/03 04:36:36;;;;;;;19.65;16.15;;;10.70;99.90;;;;;;2483898;23;20031;-72
2022/05/03 04:37:37;;;;;;;21.05;16.55;;;10.90;99.90;;;;;;2483248;23;20008;-72
2022/05/03 04:38:37;;;;;;;20.15;15.90;;;11.20;99.90;;;;;;2483849;23;20044;-72
2022/05/03 04:39:38;;;;;;;20.50;15.25;;;11.40;99.90;;;;;;2483970;23;20739;-72
2022/05/03 04:40:38;;;;;;;19.45;15.10;;;11.70;99.90;;;;;;2494789;23;20444;-72
2022/05/03 04:41:39;;;;;;;19.60;15.25;;;12.00;99.90;;;;;;2495043;23;20022;-72
2022/05/03 04:42:40;;;;;;;19.63;14.70;;;12.20;99.90;;;;;;2484845;23;20008;-72
2022/05/03 04:43:41;;;;;;;18.50;14.52;;;12.40;99.90;;;;;;2495009;23;20018;-72
2022/05/03 04:44:42;;;;;;;18.60;14.23;;;12.70;99.90;;;;;;2494630;23;20022;-72
2022/05/03 04:45:43;;;;;;;17.95;14.50;;;12.90;99.90;;;;;;2484136;23;20004;-72
2022/05/03 04:46:43;;;;;;;18.60;14.63;;;13.10;99.90;;;;;;2482837;23;20015;-72
2022/05/03 04:47:44;;;;;;;21.30;14.80;;;13.30;99.90;;;;;;2482747;23;20008;-72
2022/05/03 04:48:44;;;;;;;19.85;14.75;;;13.50;99.90;;;;;;2483695;23;20014;-72
2022/05/03 04:49:46;;;;;;;18.63;14.85;;;13.70;99.90;;;;;;2483753;23;20015;-73
2022/05/03 04:50:47;;;;;;;17.30;13.98;;;13.80;99.90;;;;;;2483683;23;20661;-72
2022/05/03 04:51:48;;;;;;;18.85;14.60;;;14.00;99.90;;;;;;2483924;23;20022;-72
2022/05/03 04:52:51;;;;;;;16.75;14.35;;;14.20;99.90;;;;;;2483655;23;20011;-72
2022/05/03 04:53:52;;;;;;;17.17;13.45;;;14.30;99.90;;;;;;2483995;23;20007;-72
2022/05/03 04:54:52;;;;;;;21.10;14.52;;;14.40;99.90;;;;;;2484267;23;20004;-73
2022/05/03 04:55:53;;;;;;;18.00;13.55;;;14.50;99.90;;;;;;2495152;23;20011;-73
2022/05/03 04:57:00;;;;;;;17.67;14.00;;;14.60;99.90;;;;;;2482871;23;20007;-72
2022/05/03 04:58:01;;;;;;;19.13;14.27;;;14.70;99.90;;;;;;2483322;23;20365;-72
2022/05/03 04:59:02;;;;;;;15.43;13.40;;;14.80;99.90;;;;;;2483948;23;20091;-72
2022/05/03 05:00:03;;;;;;;16.58;13.82;;;14.90;99.90;;;;;;2483572;23;20012;-72
2022/05/03 05:01:04;;;;;;;16.00;13.07;;;15.00;99.90;;;;;;2483745;23;20035;-73
2022/05/03 05:02:05;;;;;;;16.13;13.57;;;15.10;98.70;;;;;;2482576;23;20060;-73
2022/05/03 05:03:05;;;;;;;15.95;13.10;;;15.20;98.00;;;;;;2471194;23;20085;-73
2022/05/03 05:04:06;;;;;;;17.02;13.07;;;15.30;97.10;;;;;;2482988;23;20035;-73
2022/05/03 05:05:07;;;;;;;16.42;13.40;;;15.40;96.40;;;;;;2494424;23;20318;-72
2022/05/03 05:06:09;;;;;;;14.65;13.15;;;15.50;95.90;;;;;;2494688;23;20020;-73
2022/05/03 05:07:10;;;;;;;17.45;13.25;;;15.50;95.30;;;;;;2483199;23;20008;-73
2022/05/03 05:08:10;;;;;;;17.20;13.50;;;15.60;94.40;;;;;;2483845;23;20011;-73
2022/05/03 05:09:11;;;;;;;15.20;13.38;;;15.60;93.70;;;;;;2483728;23;20022;-72
2022/05/03 05:10:24;;;;;;;15.45;13.45;;;15.60;93.50;;;;;;2483371;23;20083;-72
2022/05/03 05:11:25;;;;;;;17.73;14.15;;;15.70;93.30;;;;;;2483029;23;20039;-74
2022/05/03 05:12:25;;;;;;;21.90;15.63;;;15.70;92.80;;;;;;2482964;23;20071;-72
2022/05/03 05:13:26;;;;;;;29.08;14.85;;;15.70;92.60;;;;;;2483643;23;20014;-72
2022/05/03 05:14:27;;;;;;;21.52;14.90;;;15.70;92.50;;;;;;2483760;23;20000;-72
2022/05/03 05:15:28;;;;;;;23.42;15.05;;;15.80;92.30;;;;;;2483647;23;20015;-73
2022/05/03 05:16:29;;;;;;;20.58;14.63;;;15.70;92.10;;;;;;2483605;23;20433;-72
2022/05/03 05:17:33;;;;;;;16.77;14.23;;;15.80;92.20;;;;;;2483564;23;20026;-72
2022/05/03 05:18:34;;;;;;;20.48;14.02;;;15.80;92.10;;;;;;2483833;23;20477;-72
2022/05/03 05:19:34;;;;;;;18.20;14.07;;;15.90;91.70;;;;;;2483662;23;20059;-72
2022/05/03 05:20:35;;;;;;;19.67;13.68;;;15.90;91.50;;;;;;2483537;23;20007;-72
2022/05/03 05:21:35;;;;;;;18.30;13.70;;;15.90;91.40;;;;;;2483572;23;20000;-74
2022/05/03 05:22:36;;;;;;;17.70;13.70;;;16.00;91.40;;;;;;2494455;23;20375;-73
2022/05/03 05:23:37;;;;;;;23.05;17.98;;;16.10;91.10;;;;;;2494570;23;20365;-73
2022/05/03 05:24:37;;;;;;;24.75;20.48;;;16.10;90.90;;;;;;2483820;23;20107;-73
2022/05/03 05:25:38;;;;;;;25.05;19.63;;;16.10;90.60;;;;;;2483591;23;20019;-72
2022/05/03 05:26:39;;;;;;;23.33;18.17;;;16.20;90.70;;;;;;2483563;23;20504;-74
2022/05/03 05:27:41;;;;;;;20.38;16.33;;;16.30;90.30;;;;;;2483129;23;20023;-74
2022/05/03 05:28:41;;;;;;;19.08;14.95;;;16.40;89.30;;;;;;2483815;23;20014;-73
2022/05/03 05:29:42;;;;;;;19.40;15.05;;;16.30;88.90;;;;;;2483787;23;20015;-73
2022/05/03 05:30:43;;;;;;;17.02;14.57;;;16.30;89.30;;;;;;2483399;23;20012;-72
2022/05/03 05:31:44;;;;;;;17.38;14.73;;;16.40;89.20;;;;;;2494463;23;20440;-74
2022/05/03 05:32:44;;;;;;;19.98;15.07;;;16.40;88.60;;;;;;2494614;23;20011;-73
2022/05/03 05:33:45;;;;;;;20.52;14.70;;;16.30;88.20;;;;;;2483973;23;20444;-76
2022/05/03 05:34:45;;;;;;;20.70;14.98;;;16.40;88.80;;;;;;2484564;23;20051;-76
2022/05/03 05:35:46;;;;;;;17.55;14.65;;;16.40;88.50;;;;;;2484579;23;20082;-74
2022/05/03 05:36:47;;;;;;;17.25;14.45;;;16.50;88.40;;;;;;2484330;23;20086;-76
2022/05/03 05:37:47;;;;;;;19.98;15.00;;;16.60;88.10;;;;;;2483746;23;20023;-72
2022/05/03 05:38:48;;;;;;;20.77;14.93;;;16.50;87.70;;;;;;2484473;23;20035;-77
2022/05/03 05:39:49;;;;;;;17.73;14.63;;;16.60;88.00;;;;;;2495325;23;20007;-79
2022/05/03 05:40:51;;;;;;;23.35;14.60;;;16.60;87.50;;;;;;2494595;23;20011;-73
2022/05/03 05:42:01;;;;;;;23.48;15.88;;;16.60;86.70;;;;;;2483558;23;20019;-74
2022/05/03 05:43:02;;;;;;;17.67;14.90;;;16.50;86.90;;;;;;2483676;23;20047;-75
2022/05/03 05:44:04;;;;;;;19.60;14.68;;;16.50;87.20;;;;;;2484237;23;20032;-75
2022/05/03 05:45:06;;;;;;;18.52;14.57;;;16.60;87.00;;;;;;2494961;23;20018;-75
2022/05/03 05:46:07;;;;;;;18.90;14.02;;;16.70;87.20;;;;;;2494316;23;20008;-75
2022/05/03 05:47:11;;;;;;;19.63;14.48;;;16.80;87.30;;;;;;2483258;23;20063;-76
2022/05/03 05:48:15;;;;;;;21.20;15.23;;;16.90;86.50;;;;;;2483205;23;20458;-74
2022/05/03 05:49:16;;;;;;;22.80;15.07;;;16.90;85.60;;;;;;2483101;23;20483;-75
2022/05/03 05:50:17;;;;;;;20.15;14.73;;;16.90;85.20;;;;;;2483460;23;20012;-74
2022/05/03 05:51:18;;;;;;;20.38;14.70;;;16.90;84.90;;;;;;2483880;23;20015;-74
2022/05/03 05:53:38;;;;;;;19.02;15.88;;;16.90;84.40;;;;;;2482616;23;20011;-72